createdAt,value
2023-01-13T00:04:17.031Z,8.2
2023-01-13T00:09:25.199Z,8.2
2023-01-13T00:14:33.372Z,8.3
2023-01-13T00:19:41.542Z,8.3
2023-01-13T00:24:49.766Z,8.4
2023-01-13T00:29:57.894Z,8.3
2023-01-13T00:35:06.096Z,8.3
2023-01-13T00:40:14.272Z,8.4
2023-01-13T00:45:22.428Z,8.4
2023-01-13T00:50:30.575Z,8.4
2023-01-13T00:55:38.760Z,8.4
2023-01-13T01:00:46.957Z,8.5
2023-01-13T01:05:55.118Z,8.5
2023-01-13T01:11:03.332Z,8.5
2023-01-13T01:16:11.476Z,8.5
2023-01-13T01:21:19.624Z,8.4
2023-01-13T01:26:27.811Z,8.5
2023-01-13T01:31:35.979Z,8.6
2023-01-13T01:36:44.151Z,8.6
2023-01-13T01:41:52.328Z,8.6
2023-01-13T01:47:00.484Z,8.6
2023-01-13T01:52:08.682Z,8.6
2023-01-13T01:57:16.838Z,8.7
2023-01-13T02:02:25.010Z,8.6
2023-01-13T02:07:33.202Z,8.7
2023-01-13T02:12:41.419Z,8.7
2023-01-13T02:17:49.570Z,8.8
2023-01-13T02:22:57.699Z,8.8
2023-01-13T02:28:05.951Z,8.8
2023-01-13T02:33:14.063Z,8.8
2023-01-13T02:38:22.224Z,8.8
2023-01-13T02:43:30.405Z,8.7
2023-01-13T02:48:38.557Z,8.8
2023-01-13T02:53:46.787Z,8.8
2023-01-13T02:58:54.920Z,8.8
2023-01-13T03:04:03.085Z,8.6
2023-01-13T03:09:11.255Z,8.6
2023-01-13T03:14:19.439Z,8.6
2023-01-13T03:19:27.595Z,8.6
2023-01-13T03:24:35.793Z,8.7
2023-01-13T03:29:43.939Z,8.7
2023-01-13T03:34:52.106Z,8.7
2023-01-13T03:40:00.286Z,8.8
2023-01-13T03:45:08.464Z,8.8
2023-01-13T03:50:16.626Z,8.8
2023-01-13T03:55:24.859Z,8.8
2023-01-13T04:00:32.986Z,8.8
2023-01-13T04:05:41.199Z,9
2023-01-13T04:10:49.318Z,9
2023-01-13T04:15:57.491Z,9
2023-01-13T04:21:05.663Z,8.8
2023-01-13T04:26:13.848Z,8.8
2023-01-13T04:31:22.018Z,8.9
2023-01-13T04:36:30.178Z,9
2023-01-13T04:41:38.355Z,9
2023-01-13T04:46:46.525Z,8.9
2023-01-13T04:51:54.702Z,9
2023-01-13T04:57:02.920Z,9.1
2023-01-13T05:02:11.040Z,9
2023-01-13T05:07:19.219Z,9
2023-01-13T05:12:27.386Z,9
2023-01-13T05:17:35.548Z,9.1
2023-01-13T05:22:43.737Z,9.1
2023-01-13T05:27:51.899Z,9.1
2023-01-13T05:33:00.084Z,9
2023-01-13T05:38:08.244Z,9.1
2023-01-13T05:43:16.419Z,9.1
2023-01-13T05:48:24.594Z,9.2
2023-01-13T05:53:32.770Z,9.1
2023-01-13T05:58:40.937Z,8.9
2023-01-13T06:03:49.096Z,8.6
2023-01-13T06:08:57.283Z,8.4
2023-01-13T06:14:05.475Z,8.2
2023-01-13T06:19:13.629Z,8.1
2023-01-13T06:24:21.796Z,8
2023-01-13T06:29:29.963Z,8
2023-01-13T06:34:38.147Z,8
2023-01-13T06:39:46.325Z,8
2023-01-13T06:44:54.495Z,8
2023-01-13T06:50:02.667Z,8
2023-01-13T06:55:10.822Z,7.9
2023-01-13T07:00:19.136Z,7.8
2023-01-13T07:05:27.224Z,7.9
2023-01-13T07:10:35.357Z,7.9
2023-01-13T07:15:43.524Z,7.9
2023-01-13T07:20:51.727Z,7.9
2023-01-13T07:25:59.917Z,7.9
2023-01-13T07:31:08.060Z,7.9
2023-01-13T07:36:16.275Z,7.8
2023-01-13T07:41:24.406Z,7.8
2023-01-13T07:46:32.602Z,7.7
2023-01-13T07:51:40.758Z,7.7
2023-01-13T07:56:48.912Z,7.8
2023-01-13T08:01:57.093Z,7.7
2023-01-13T08:07:05.315Z,7.6
2023-01-13T08:12:13.455Z,7.6
2023-01-13T08:17:21.648Z,7.6
2023-01-13T08:22:29.802Z,7.6
2023-01-13T08:27:38.001Z,7.6
2023-01-13T08:32:46.136Z,7.5
2023-01-13T08:37:54.301Z,7.5
2023-01-13T08:43:02.519Z,7.5
2023-01-13T08:48:10.688Z,7.5
2023-01-13T08:53:18.848Z,7.4
2023-01-13T08:58:27.086Z,7.3
2023-01-13T09:03:35.214Z,7.3
2023-01-13T09:08:43.369Z,7.2
2023-01-13T09:13:51.557Z,7.1
2023-01-13T09:18:59.697Z,7
2023-01-13T09:24:07.873Z,7
2023-01-13T09:29:16.082Z,7
2023-01-13T09:34:24.217Z,7
2023-01-13T09:39:32.466Z,6.9
2023-01-13T09:44:40.575Z,7
2023-01-13T09:49:48.739Z,7
2023-01-13T09:54:56.917Z,7
2023-01-13T10:00:05.095Z,7.1
2023-01-13T10:05:13.288Z,7
2023-01-13T10:10:21.462Z,7.1
2023-01-13T10:15:29.617Z,7
2023-01-13T10:20:37.813Z,7
2023-01-13T10:25:46.060Z,7.3
2023-01-13T10:30:54.137Z,7.5
2023-01-13T10:36:02.325Z,7.7
2023-01-13T10:41:10.482Z,9
2023-01-13T10:46:18.657Z,9.2
2023-01-13T10:51:26.887Z,9.5
2023-01-13T10:56:35.106Z,9.6
2023-01-13T11:01:43.177Z,9.8
2023-01-13T11:06:51.344Z,9.9
2023-01-13T11:11:59.589Z,10
2023-01-13T11:17:07.681Z,10.3
2023-01-13T11:22:15.867Z,10.5
2023-01-13T11:27:24.061Z,10.4
2023-01-13T11:32:32.195Z,10.5
2023-01-13T11:37:40.393Z,10.2
2023-01-13T11:42:48.536Z,9.9
2023-01-13T11:47:56.696Z,10.5
2023-01-13T11:53:04.876Z,10.8
2023-01-13T11:58:13.034Z,10.4
2023-01-13T12:03:21.220Z,10.6
2023-01-13T12:08:29.407Z,10.5
2023-01-13T12:13:37.565Z,10.9
2023-01-13T12:18:45.745Z,9.6
2023-01-13T12:23:53.907Z,9.4
2023-01-13T12:29:02.099Z,9
2023-01-13T12:34:10.241Z,8.9
2023-01-13T12:39:18.417Z,9.1
2023-01-13T12:44:26.586Z,9.6
2023-01-13T12:49:34.752Z,9.1
2023-01-13T12:54:42.929Z,9.6
2023-01-13T12:59:51.095Z,9.2
2023-01-13T13:04:59.272Z,9.8
2023-01-13T13:10:07.502Z,9.1
2023-01-13T13:15:15.639Z,9.1
2023-01-13T13:20:23.787Z,9.6
2023-01-13T13:25:31.963Z,9
2023-01-13T13:30:40.139Z,9.1
2023-01-13T13:35:48.302Z,8.9
2023-01-13T13:40:56.459Z,8.8
2023-01-13T13:46:04.720Z,8.6
2023-01-13T13:51:12.892Z,8.5
2023-01-13T13:56:21.157Z,8.5
2023-01-13T14:01:29.355Z,8.5
2023-01-13T14:06:37.482Z,8.5
2023-01-13T14:11:45.618Z,8.6
2023-01-13T14:16:53.774Z,8.5
2023-01-13T14:22:01.962Z,8.4
2023-01-13T14:27:10.121Z,8.1
2023-01-13T14:32:18.293Z,8
2023-01-13T14:37:26.449Z,7.9
2023-01-13T14:42:34.629Z,7.7
2023-01-13T14:47:42.829Z,7.6
2023-01-13T14:52:50.964Z,7.5
2023-01-13T14:57:59.221Z,7.3
2023-01-13T15:03:07.302Z,7.2
2023-01-13T15:08:15.491Z,7.1
2023-01-13T15:13:23.630Z,7.2
2023-01-13T15:18:31.828Z,7.1
2023-01-13T15:23:39.993Z,7.1
2023-01-13T15:28:48.157Z,7.2
2023-01-13T15:33:56.341Z,7.2
2023-01-13T15:39:04.515Z,7.1
2023-01-13T15:44:12.787Z,7.1
2023-01-13T15:49:20.864Z,7.3
2023-01-13T15:54:29.029Z,7.3
2023-01-13T15:59:37.190Z,7.3
2023-01-13T16:04:45.396Z,7.4
2023-01-13T16:09:53.576Z,7.3
2023-01-13T16:15:01.723Z,7.3
2023-01-13T16:20:09.918Z,7.2
2023-01-13T16:25:18.103Z,7.3
2023-01-13T16:30:26.279Z,7.3
2023-01-13T16:35:34.467Z,7.3
2023-01-13T16:40:42.642Z,7.3
2023-01-13T16:45:50.817Z,7.3
2023-01-13T16:50:59.065Z,7.2
2023-01-13T16:56:07.198Z,7.2
2023-01-13T17:01:15.361Z,7.2
2023-01-13T17:06:23.599Z,7.2
2023-01-13T17:11:31.736Z,7.2
2023-01-13T17:16:39.900Z,7.2
2023-01-13T17:21:48.069Z,7.1
2023-01-13T17:26:56.234Z,7.2
2023-01-13T17:32:04.412Z,7.1
2023-01-13T17:37:12.560Z,7.1
2023-01-13T17:42:20.763Z,7.1
2023-01-13T17:47:28.933Z,7
2023-01-13T17:52:37.103Z,6.7
2023-01-13T17:57:45.283Z,6.6
2023-01-13T18:02:53.445Z,6.7
2023-01-13T18:08:01.625Z,6.7
2023-01-13T18:13:09.811Z,6.8
2023-01-13T18:18:17.980Z,6.9
2023-01-13T18:23:26.152Z,6.9
2023-01-13T18:28:34.373Z,6.9
2023-01-13T18:33:42.518Z,7
2023-01-13T18:38:50.701Z,7
2023-01-13T18:43:59.158Z,7
2023-01-13T18:49:07.120Z,6.9
2023-01-13T18:54:15.243Z,6.9
2023-01-13T18:59:23.449Z,6.9
2023-01-13T19:04:31.691Z,7
2023-01-13T19:09:39.711Z,6.9
2023-01-13T19:14:47.878Z,6.8
2023-01-13T19:19:56.067Z,6.7
2023-01-13T19:25:04.231Z,6.6
2023-01-13T19:30:12.405Z,6.6
2023-01-13T19:35:20.620Z,6.4
2023-01-13T19:40:28.735Z,6.5
2023-01-13T19:45:36.941Z,6.3
2023-01-13T19:50:45.085Z,6.2
2023-01-13T19:55:53.331Z,6.3
2023-01-13T20:01:01.453Z,6.3
2023-01-13T20:06:09.623Z,6.2
2023-01-13T20:11:17.794Z,6
2023-01-13T20:16:25.968Z,6.1
2023-01-13T20:21:34.150Z,6.2
2023-01-13T20:26:42.315Z,6.2
2023-01-13T20:31:50.494Z,6.2
2023-01-13T20:36:58.685Z,6.2
2023-01-13T20:42:06.822Z,6.2
2023-01-13T20:47:15.002Z,6.1
2023-01-13T20:52:23.177Z,6.1
2023-01-13T20:57:31.370Z,6.1
2023-01-13T21:02:39.535Z,6.1
2023-01-13T21:07:47.701Z,6
2023-01-13T21:12:55.895Z,6
2023-01-13T21:18:04.065Z,6.1
2023-01-13T21:23:12.231Z,6.2
2023-01-13T21:28:20.412Z,6
2023-01-13T21:33:28.582Z,5.9
2023-01-13T21:38:36.763Z,5.9
2023-01-13T21:43:44.916Z,5.8
2023-01-13T21:48:53.095Z,5.7
2023-01-13T21:54:01.285Z,5.8
2023-01-13T21:59:09.435Z,5.8
2023-01-13T22:04:17.607Z,6
2023-01-13T22:09:25.796Z,6
2023-01-13T22:14:33.962Z,6
2023-01-13T22:19:42.212Z,6
2023-01-13T22:24:50.322Z,6
2023-01-13T22:29:58.492Z,6
2023-01-13T22:35:06.666Z,6
2023-01-13T22:40:14.863Z,5.9
2023-01-13T22:45:23.018Z,6
2023-01-13T22:50:31.185Z,6
2023-01-13T22:55:39.341Z,6
2023-01-13T23:00:47.531Z,6.1
2023-01-13T23:05:55.756Z,6.2
2023-01-13T23:11:03.915Z,6.2
2023-01-13T23:16:12.073Z,6.2
2023-01-13T23:21:20.215Z,6.2
2023-01-13T23:26:28.442Z,6.4
2023-01-13T23:31:36.588Z,6.5
2023-01-13T23:36:44.764Z,6.5
2023-01-13T23:41:52.922Z,6.5
2023-01-13T23:47:01.150Z,6.5
2023-01-13T23:52:09.289Z,6.5
2023-01-13T23:57:17.460Z,6.5
